Efogi Airport

METAR AYPY TAF AYPY
29 °C
°C
-
°C
19m
Idade
02:18:55
LT
01:18
UTC
0 ft

1.000

2.000

3.000

4.000

5.000

FEW 5.000
VFR
<?= Yii::t('app', 'Wind direction') ?> <?= Yii::t('app', 'of'); ?>
330°
18:39
Pôr-do-sol
74%
Humidade
Tesoura de Vento
Fechado/Neve
Alcance visual RWY
Condição RWY
Vert. visibilidade
Min. visibilidade
CAVOK
Tendência
Correcção
Relatório especial
1005 hPa
QNH
METAR AYPY 030100Z 33010G15KT 9999 FEW050 29/24 Q1005
Poucas nuvens
3 kt
3 kt
11:00
VFR
8 kt
12:00
VFR
10 kt
13:00
VFR
10 kt
14:00
IFR
10 kt
15:00
IFR
10 kt
16:00
IFR
10 kt
17:00
IFR
10 kt
10 km+
Visibilidade
Nenhum
Tecto
10-15 kt
Vento
metar-taf.com/EFG

Metar-Taf.com

Decodificador visual

Nós e terceiros acompanhamos seu comportamento na internet em nosso site com cookies. Se você continuar, nós assumimos que você concorda com nosso política de cookies.